createdAt,value
2022-11-28T00:01:41.412Z,6.28
2022-11-28T00:04:10.420Z,6.57
2022-11-28T00:06:40.141Z,6.50
2022-11-28T00:09:09.815Z,6.20
2022-11-28T00:11:40.061Z,6.63
2022-11-28T00:14:08.803Z,6.50
2022-11-28T00:16:37.499Z,6.70
2022-11-28T00:19:07.937Z,7.03
2022-11-28T00:21:36.378Z,6.80
2022-11-28T00:24:05.168Z,7.03
2022-11-28T00:26:35.029Z,6.90
2022-11-28T00:29:05.021Z,6.97
2022-11-28T00:31:35.977Z,7.05
2022-11-28T00:34:06.121Z,7.28
2022-11-28T00:36:34.331Z,7.80
2022-11-28T00:39:02.534Z,7.38
2022-11-28T00:41:33.924Z,7.40
2022-11-28T00:44:02.365Z,8.07
2022-11-28T00:46:30.986Z,7.90
2022-11-28T00:48:59.879Z,7.90
2022-11-28T00:51:31.557Z,7.90
2022-11-28T00:54:01.347Z,7.85
2022-11-28T00:56:32.043Z,8.07
2022-11-28T00:59:00.803Z,8.68
2022-11-28T01:01:32.076Z,8.15
2022-11-28T01:04:02.232Z,8.85
2022-11-28T01:06:34.074Z,9.45
2022-11-28T01:09:04.767Z,9.32
2022-11-28T01:11:33.280Z,9.43
2022-11-28T01:14:02.784Z,9.63
2022-11-28T01:16:31.471Z,9.90
2022-11-28T01:18:59.940Z,10.30
2022-11-28T01:21:28.645Z,9.57
2022-11-28T01:23:58.510Z,9.73
2022-11-28T01:26:29.199Z,9.65
2022-11-28T01:28:57.639Z,10.02
2022-11-28T01:31:28.439Z,10.30
2022-11-28T01:33:57.565Z,10.05
2022-11-28T01:36:26.147Z,10.55
2022-11-28T01:38:54.580Z,10.70
2022-11-28T01:41:26.508Z,10.98
2022-11-28T01:44:03.970Z,10.90
2022-11-28T01:46:32.650Z,10.90
2022-11-28T01:49:06.063Z,11.00
2022-11-28T01:51:34.875Z,10.73
2022-11-28T01:54:03.853Z,11.63
2022-11-28T01:56:41.648Z,11.40
2022-11-28T01:59:12.815Z,12.27
2022-11-28T02:01:41.408Z,12.52
2022-11-28T02:04:11.430Z,11.95
2022-11-28T02:06:39.597Z,12.52
2022-11-28T02:09:11.029Z,12.15
2022-11-28T02:12:02.348Z,11.95
2022-11-28T02:14:56.701Z,12.20
2022-11-28T02:17:32.555Z,11.38
2022-11-28T02:20:28.804Z,11.07
2022-11-28T02:23:07.896Z,10.70
2022-11-28T02:25:59.277Z,10.77
2022-11-28T02:29:03.835Z,10.40
2022-11-28T02:34:14.931Z,10.48
2022-11-28T02:36:48.618Z,10.38
2022-11-28T02:41:57.828Z,9.55
2022-11-28T02:44:32.442Z,9.15
2022-11-28T02:47:06.869Z,9.65
2022-11-28T02:49:43.518Z,9.45
2022-11-28T02:52:16.536Z,9.30
2022-11-28T02:54:46.270Z,9.60
2022-11-28T02:57:14.412Z,10.73
2022-11-28T02:59:50.531Z,10.45
2022-11-28T03:02:24.176Z,10.20
2022-11-28T03:07:40.073Z,10.17
2022-11-28T03:10:20.130Z,11.68
2022-11-28T03:12:57.131Z,12.02
2022-11-28T03:15:33.981Z,12.50
2022-11-28T03:18:11.541Z,13.85
2022-11-28T03:20:48.353Z,12.52
2022-11-28T03:23:18.272Z,13.10
2022-11-28T03:25:59.386Z,13.60
2022-11-28T03:28:31.720Z,14.40
2022-11-28T03:31:03.308Z,15.52
2022-11-28T03:33:34.735Z,16.42
2022-11-28T03:36:07.960Z,17.20
2022-11-28T03:38:39.118Z,17.73
2022-11-28T03:41:12.950Z,20.05
2022-11-28T03:43:45.585Z,20.52
2022-11-28T03:46:17.768Z,20.15
2022-11-28T03:48:48.070Z,20.90
2022-11-28T03:51:19.936Z,19.10
2022-11-28T03:53:54.348Z,22.25
2022-11-28T03:56:27.839Z,23.40
2022-11-28T03:59:01.385Z,21.70
2022-11-28T04:01:34.021Z,24.70
2022-11-28T04:04:15.453Z,24.70
2022-11-28T04:06:59.144Z,24.92
2022-11-28T04:09:41.026Z,24.67
2022-11-28T04:12:16.432Z,25.80
2022-11-28T04:14:49.740Z,26.10
2022-11-28T04:17:21.498Z,27.95
2022-11-28T04:19:53.109Z,29.77
2022-11-28T04:22:28.392Z,29.08
2022-11-28T04:24:59.724Z,28.08
2022-11-28T04:27:32.945Z,28.30
2022-11-28T04:30:04.461Z,30.30
2022-11-28T04:32:37.710Z,29.65
2022-11-28T04:35:09.010Z,27.52
2022-11-28T04:37:40.824Z,29.10
2022-11-28T04:40:11.194Z,31.08
2022-11-28T04:42:47.591Z,32.67
2022-11-28T04:45:24.279Z,31.98
2022-11-28T04:47:53.305Z,32.38
2022-11-28T04:50:23.242Z,33.25
2022-11-28T04:52:57.343Z,32.42
2022-11-28T04:55:31.404Z,31.52
2022-11-28T04:58:09.924Z,30.38
2022-11-28T05:00:39.523Z,32.47
2022-11-28T05:03:08.997Z,31.52
2022-11-28T05:05:45.411Z,32.17
2022-11-28T05:08:15.630Z,29.92
2022-11-28T05:10:43.809Z,32.20
2022-11-28T05:13:12.299Z,32.15
2022-11-28T05:15:40.625Z,33.20
2022-11-28T05:18:08.783Z,34.85
2022-11-28T05:20:38.298Z,34.63
2022-11-28T05:23:06.940Z,34.58
2022-11-28T05:25:38.441Z,33.22
2022-11-28T05:28:06.985Z,32.50
2022-11-28T05:30:35.190Z,32.47
2022-11-28T05:33:03.978Z,33.28
2022-11-28T05:35:32.195Z,32.50
2022-11-28T05:38:00.414Z,30.05
2022-11-28T05:40:28.688Z,28.58
2022-11-28T05:42:58.567Z,27.45
2022-11-28T05:45:26.675Z,27.35
2022-11-28T05:47:54.797Z,26.63
2022-11-28T05:50:23.222Z,25.55
2022-11-28T05:52:51.309Z,23.80
2022-11-28T05:55:19.474Z,22.65
2022-11-28T05:57:48.292Z,23.17
2022-11-28T06:00:18.799Z,23.33
2022-11-28T06:02:46.963Z,23.55
2022-11-28T06:05:40.393Z,22.77
2022-11-28T06:08:03.921Z,21.48
2022-11-28T06:10:32.819Z,21.58
2022-11-28T06:13:01.027Z,20.65
2022-11-28T06:15:34.938Z,21.25
2022-11-28T06:18:06.182Z,21.88
2022-11-28T06:20:36.485Z,23.33
2022-11-28T06:23:04.999Z,22.95
2022-11-28T06:25:33.438Z,23.60
2022-11-28T06:28:01.638Z,25.10
2022-11-28T06:30:31.093Z,25.48
2022-11-28T06:32:59.417Z,25.15
2022-11-28T06:35:27.539Z,26.90
2022-11-28T06:37:55.637Z,25.77
2022-11-28T06:40:23.806Z,27.73
2022-11-28T06:42:51.915Z,27.67
2022-11-28T06:45:20.226Z,28.10
2022-11-28T06:47:49.988Z,27.65
2022-11-28T06:50:18.241Z,26.73
2022-11-28T06:52:46.371Z,26.67
2022-11-28T06:55:14.682Z,26.70
2022-11-28T06:57:42.769Z,26.38
2022-11-28T07:00:11.911Z,26.80
2022-11-28T07:02:40.473Z,27.27
2022-11-28T07:05:10.796Z,25.10
2022-11-28T07:07:53.276Z,26.60
2022-11-28T07:10:23.206Z,27.25
2022-11-28T07:12:55.201Z,26.77
2022-11-28T07:15:23.625Z,28.27
2022-11-28T07:17:52.123Z,27.40
2022-11-28T07:20:21.894Z,28.45
2022-11-28T07:22:50.563Z,29.77
2022-11-28T07:25:18.859Z,27.90
2022-11-28T07:27:49.868Z,27.73
2022-11-28T07:30:20.143Z,27.98
2022-11-28T07:32:48.223Z,26.90
2022-11-28T07:35:16.556Z,26.48
2022-11-28T07:37:46.554Z,26.70
2022-11-28T07:40:15.235Z,26.05
2022-11-28T07:42:43.456Z,26.95
2022-11-28T07:45:12.534Z,27.73
2022-11-28T07:47:40.790Z,26.73
2022-11-28T07:50:10.026Z,27.23
2022-11-28T07:52:38.560Z,26.50
2022-11-28T07:55:09.093Z,26.85
2022-11-28T07:57:37.198Z,27.75
2022-11-28T08:00:06.306Z,26.88
2022-11-28T08:02:34.792Z,27.52
2022-11-28T08:05:04.421Z,27.05
2022-11-28T08:07:32.768Z,27.27
2022-11-28T08:10:01.040Z,27.50
2022-11-28T08:12:30.553Z,27.65
2022-11-28T08:14:58.793Z,28.10
2022-11-28T08:17:27.135Z,28.08
2022-11-28T08:19:55.227Z,28.70
2022-11-28T08:22:23.478Z,28.85
2022-11-28T08:24:51.893Z,28.15
2022-11-28T08:27:20.091Z,27.58
2022-11-28T08:29:53.208Z,28.38
2022-11-28T08:34:50.449Z,27.38
2022-11-28T08:37:18.563Z,26.35
2022-11-28T08:39:46.906Z,26.50
2022-11-28T08:42:15.094Z,26.80
2022-11-28T08:44:43.226Z,27.38
2022-11-28T08:47:13.270Z,27.35
2022-11-28T08:49:42.300Z,27.83
2022-11-28T08:52:11.028Z,26.35
2022-11-28T08:54:39.403Z,27.27
2022-11-28T08:57:08.195Z,26.75
2022-11-28T08:59:37.176Z,26.15
2022-11-28T09:02:05.301Z,26.38
2022-11-28T09:04:35.186Z,24.95
2022-11-28T09:07:03.421Z,24.77
2022-11-28T09:09:32.885Z,25.92
2022-11-28T09:12:01.635Z,25.00
2022-11-28T09:14:29.867Z,24.08
2022-11-28T09:16:58.019Z,24.55
2022-11-28T09:19:26.631Z,25.00
2022-11-28T09:21:58.018Z,25.05
2022-11-28T09:24:26.359Z,23.85
2022-11-28T09:26:54.735Z,25.15
2022-11-28T09:29:23.031Z,25.33
2022-11-28T09:31:51.236Z,23.33
2022-11-28T09:34:19.678Z,26.40
2022-11-28T09:36:50.081Z,25.55
2022-11-28T09:39:19.633Z,25.40
2022-11-28T09:42:01.263Z,26.10
2022-11-28T09:44:37.598Z,25.90
2022-11-28T09:47:12.027Z,23.73
2022-11-28T09:49:47.621Z,24.58
2022-11-28T09:52:29.534Z,25.00
2022-11-28T09:55:11.036Z,24.45
2022-11-28T09:57:44.843Z,23.60
2022-11-28T10:00:18.739Z,24.92
2022-11-28T10:02:59.910Z,25.33
2022-11-28T10:05:36.979Z,24.90
2022-11-28T10:08:19.202Z,26.35
2022-11-28T10:10:58.868Z,25.75
2022-11-28T10:13:59.886Z,25.95
2022-11-28T10:16:32.568Z,26.25
2022-11-28T10:19:04.563Z,27.33
2022-11-28T10:21:38.087Z,27.13
2022-11-28T10:24:14.077Z,29.75
2022-11-28T10:26:47.591Z,29.00
2022-11-28T10:29:25.736Z,29.98
2022-11-28T10:31:58.343Z,30.50
2022-11-28T10:34:31.548Z,29.85
2022-11-28T10:37:06.219Z,27.17
2022-11-28T10:39:38.870Z,28.65
2022-11-28T10:42:16.706Z,28.08
2022-11-28T10:45:15.049Z,27.13
2022-11-28T10:47:54.961Z,27.30
2022-11-28T10:50:34.043Z,26.95
2022-11-28T10:53:08.221Z,26.15
2022-11-28T10:55:45.243Z,28.75
2022-11-28T10:58:22.533Z,28.52
2022-11-28T11:00:55.384Z,28.83
2022-11-28T11:03:29.260Z,26.13
2022-11-28T11:05:57.943Z,27.77
2022-11-28T11:08:28.327Z,26.73
2022-11-28T11:11:03.043Z,27.70
2022-11-28T11:13:34.503Z,26.77
2022-11-28T11:16:06.120Z,27.35
2022-11-28T11:18:36.645Z,26.33
2022-11-28T11:21:16.985Z,26.83
2022-11-28T11:23:46.181Z,26.58
2022-11-28T11:26:23.973Z,27.15
2022-11-28T11:28:53.640Z,26.30
2022-11-28T11:31:28.548Z,25.65
2022-11-28T11:34:03.676Z,25.38
2022-11-28T11:36:34.385Z,25.50
2022-11-28T11:39:20.733Z,23.92
2022-11-28T11:41:50.827Z,23.10
2022-11-28T11:44:34.421Z,25.42
2022-11-28T11:47:05.765Z,24.52
2022-11-28T11:49:36.158Z,24.17
2022-11-28T11:52:07.147Z,24.67
2022-11-28T11:54:35.374Z,22.30
2022-11-28T11:57:31.382Z,23.77
2022-11-28T11:59:57.144Z,23.50
2022-11-28T12:02:32.373Z,22.83
2022-11-28T12:05:05.812Z,21.35
2022-11-28T12:07:40.366Z,21.02
2022-11-28T12:10:14.238Z,20.42
2022-11-28T12:12:42.602Z,21.08
2022-11-28T12:15:19.105Z,21.05
2022-11-28T12:18:04.401Z,21.48
2022-11-28T12:20:41.787Z,22.00
2022-11-28T12:23:25.539Z,20.60
2022-11-28T12:26:00.955Z,20.85
2022-11-28T12:28:42.691Z,21.60
2022-11-28T12:31:22.906Z,20.50
2022-11-28T12:34:04.189Z,20.80
2022-11-28T12:36:37.912Z,18.45
2022-11-28T12:42:17.297Z,15.50
2022-11-28T12:44:59.950Z,16.98
2022-11-28T12:47:40.782Z,17.55
2022-11-28T12:50:19.772Z,16.48
2022-11-28T12:52:57.320Z,17.00
2022-11-28T12:55:35.457Z,18.50
2022-11-28T12:58:11.780Z,18.08
2022-11-28T13:00:51.912Z,17.88
2022-11-28T13:03:36.104Z,18.92
2022-11-28T13:06:18.375Z,19.05
2022-11-28T13:09:04.458Z,20.30
2022-11-28T13:11:52.439Z,20.67
2022-11-28T13:14:28.837Z,22.58
2022-11-28T13:17:00.000Z,22.73
2022-11-28T13:19:39.729Z,22.55
2022-11-28T13:22:14.844Z,23.77
2022-11-28T13:24:52.181Z,22.98
2022-11-28T13:27:32.632Z,23.65
2022-11-28T13:30:10.517Z,23.67
2022-11-28T13:32:45.924Z,23.48
2022-11-28T13:35:18.644Z,22.63
2022-11-28T13:40:44.248Z,22.65
2022-11-28T13:43:16.089Z,22.33
2022-11-28T13:45:46.867Z,21.67
2022-11-28T13:51:43.540Z,22.55
2022-11-28T13:54:46.414Z,20.33
2022-11-28T13:57:31.268Z,19.65
2022-11-28T14:00:22.655Z,20.52
2022-11-28T14:02:54.646Z,20.10
2022-11-28T14:05:32.876Z,19.33
2022-11-28T14:08:04.479Z,20.70
2022-11-28T14:10:56.681Z,19.80
2022-11-28T14:13:45.031Z,20.20
2022-11-28T14:16:23.838Z,20.50
2022-11-28T14:19:13.833Z,20.67
2022-11-28T14:21:58.018Z,21.15
2022-11-28T14:24:44.583Z,20.55
2022-11-28T14:27:21.919Z,21.58
2022-11-28T14:29:53.279Z,20.90
2022-11-28T14:32:33.654Z,20.38
2022-11-28T14:35:02.623Z,21.38
2022-11-28T14:37:58.888Z,20.63
2022-11-28T14:41:06.971Z,19.15
2022-11-28T14:43:38.257Z,19.30
2022-11-28T14:46:40.816Z,18.65
2022-11-28T14:49:21.914Z,17.55
2022-11-28T14:52:45.178Z,16.02
2022-11-28T14:55:20.698Z,16.23
2022-11-28T14:57:58.189Z,17.75
2022-11-28T15:00:29.977Z,22.67
2022-11-28T15:03:14.024Z,16.58
2022-11-28T15:05:47.608Z,13.88
2022-11-28T15:08:49.441Z,15.15
2022-11-28T15:11:36.521Z,13.23
2022-11-28T15:14:21.925Z,12.82
2022-11-28T15:16:53.938Z,13.90
2022-11-28T15:19:28.952Z,13.75
2022-11-28T15:21:57.891Z,13.38
2022-11-28T15:24:31.254Z,12.18
2022-11-28T15:27:16.899Z,12.63
2022-11-28T15:29:55.378Z,18.95
2022-11-28T15:32:25.943Z,20.15
2022-11-28T15:34:58.032Z,14.82
2022-11-28T15:37:30.390Z,13.43
2022-11-28T15:40:00.835Z,14.48
2022-11-28T15:42:31.817Z,14.85
2022-11-28T15:45:01.781Z,13.35
2022-11-28T15:47:31.941Z,13.32
2022-11-28T15:50:03.097Z,16.30
2022-11-28T15:52:31.989Z,14.18
2022-11-28T15:55:00.212Z,13.70
2022-11-28T15:57:32.727Z,13.23
2022-11-28T16:00:05.244Z,13.75
2022-11-28T16:02:38.866Z,18.75
2022-11-28T16:07:42.835Z,20.40
2022-11-28T16:10:25.454Z,22.67
2022-11-28T16:12:59.374Z,19.50
2022-11-28T16:15:28.364Z,18.10
2022-11-28T16:17:58.197Z,19.85
2022-11-28T16:20:29.134Z,21.52
2022-11-28T16:23:02.678Z,19.67
2022-11-28T16:25:32.824Z,21.95
2022-11-28T16:28:01.377Z,21.58
2022-11-28T16:30:37.009Z,17.95
2022-11-28T16:33:40.035Z,17.35
2022-11-28T16:36:19.475Z,17.33
2022-11-28T16:38:49.819Z,22.17
2022-11-28T16:41:19.120Z,20.58
2022-11-28T16:43:51.384Z,24.88
2022-11-28T16:46:22.861Z,25.90
2022-11-28T16:48:59.801Z,26.77
2022-11-28T16:51:36.327Z,34.58
2022-11-28T16:54:31.003Z,31.92
2022-11-28T16:57:10.487Z,24.83
2022-11-28T16:59:39.201Z,20.27
2022-11-28T17:02:15.533Z,17.23
2022-11-28T17:04:46.039Z,17.50
2022-11-28T17:07:16.750Z,17.17
2022-11-28T17:09:46.955Z,19.85
2022-11-28T17:12:21.107Z,18.60
2022-11-28T17:14:49.498Z,19.27
2022-11-28T17:17:19.037Z,20.25
2022-11-28T17:19:48.669Z,29.70
2022-11-28T17:22:19.922Z,23.25
2022-11-28T17:24:48.951Z,22.38
2022-11-28T17:27:17.350Z,21.25
2022-11-28T17:29:45.814Z,20.35
2022-11-28T17:32:15.497Z,21.27
2022-11-28T17:34:46.114Z,20.75
2022-11-28T17:37:16.791Z,23.02
2022-11-28T17:40:05.673Z,24.08
2022-11-28T17:42:34.087Z,25.15
2022-11-28T17:45:02.323Z,20.88
2022-11-28T17:47:30.510Z,21.90
2022-11-28T17:49:58.831Z,22.00
2022-11-28T17:52:30.360Z,26.60
2022-11-28T17:55:06.906Z,25.02
2022-11-28T17:57:36.000Z,22.45
2022-11-28T18:00:06.751Z,23.25
2022-11-28T18:02:37.428Z,23.20
2022-11-28T18:05:06.372Z,20.50
2022-11-28T18:07:36.010Z,25.20
2022-11-28T18:10:04.969Z,22.60
2022-11-28T18:12:33.593Z,20.55
2022-11-28T18:15:01.768Z,19.50
2022-11-28T18:17:30.007Z,20.90
2022-11-28T18:19:58.718Z,22.40
2022-11-28T18:22:27.111Z,23.38
2022-11-28T18:24:57.664Z,24.25
2022-11-28T18:27:25.816Z,22.67
2022-11-28T18:29:53.948Z,23.08
2022-11-28T18:32:22.263Z,23.15
2022-11-28T18:34:50.322Z,22.27
2022-11-28T18:37:18.616Z,20.23
2022-11-28T18:39:47.295Z,20.95
2022-11-28T18:42:17.975Z,20.67
2022-11-28T18:44:46.190Z,22.92
2022-11-28T18:47:14.587Z,29.42
2022-11-28T18:49:43.047Z,27.45
2022-11-28T18:52:11.551Z,34.47
2022-11-28T18:54:39.820Z,33.33
2022-11-28T18:57:08.739Z,32.97
2022-11-28T18:59:38.525Z,34.22
2022-11-28T19:02:07.074Z,31.13
2022-11-28T19:04:35.325Z,37.10
2022-11-28T19:07:04.350Z,33.55
2022-11-28T19:09:32.958Z,29.60
2022-11-28T19:12:01.171Z,32.33
2022-11-28T19:14:29.501Z,31.45
2022-11-28T19:16:59.795Z,32.78
2022-11-28T19:19:28.039Z,28.48
2022-11-28T19:21:56.379Z,30.05
2022-11-28T19:24:24.626Z,29.55
2022-11-28T19:26:52.853Z,27.30
2022-11-28T19:29:21.211Z,26.25
2022-11-28T19:31:50.319Z,28.83
2022-11-28T19:34:20.362Z,26.17
2022-11-28T19:36:51.273Z,26.50
2022-11-28T19:39:22.212Z,25.85
2022-11-28T19:41:51.812Z,28.30
2022-11-28T19:44:21.017Z,27.98
2022-11-28T19:46:50.307Z,29.13
2022-11-28T19:49:22.052Z,34.70
2022-11-28T19:51:51.200Z,35.50
2022-11-28T19:54:20.887Z,31.10
2022-11-28T19:56:51.307Z,32.15
2022-11-28T19:59:19.543Z,31.27
2022-11-28T20:01:50.005Z,32.38
2022-11-28T20:04:20.444Z,33.00
2022-11-28T20:06:48.799Z,34.45
2022-11-28T20:09:16.927Z,34.58
2022-11-28T20:11:45.977Z,34.97
2022-11-28T20:14:16.403Z,36.10
2022-11-28T20:16:44.929Z,34.20
2022-11-28T20:19:16.041Z,35.00
2022-11-28T20:21:46.135Z,36.20
2022-11-28T20:24:14.408Z,37.75
2022-11-28T20:26:44.162Z,37.30
2022-11-28T20:29:15.883Z,35.90
2022-11-28T20:31:46.600Z,35.00
2022-11-28T20:34:15.771Z,35.88
2022-11-28T20:36:45.489Z,36.03
2022-11-28T20:39:14.135Z,33.55
2022-11-28T20:41:42.373Z,33.38
2022-11-28T20:44:11.633Z,38.15
2022-11-28T20:46:40.028Z,33.70
2022-11-28T20:49:08.615Z,31.83
2022-11-28T20:51:37.257Z,30.08
2022-11-28T20:54:08.271Z,28.40
2022-11-28T20:57:04.974Z,27.75
2022-11-28T20:59:27.878Z,26.02
2022-11-28T21:01:56.442Z,27.17
2022-11-28T21:04:24.614Z,27.10
2022-11-28T21:06:53.140Z,25.70
2022-11-28T21:09:22.888Z,24.63
2022-11-28T21:11:57.521Z,25.83
2022-11-28T21:14:27.506Z,23.80
2022-11-28T21:16:56.014Z,23.35
2022-11-28T21:19:24.319Z,23.30
2022-11-28T21:21:52.680Z,25.75
2022-11-28T21:24:22.636Z,25.38
2022-11-28T21:26:53.891Z,25.77
2022-11-28T21:29:23.873Z,26.00
2022-11-28T21:31:52.490Z,25.75
2022-11-28T21:34:20.731Z,25.95
2022-11-28T21:36:49.033Z,25.85
2022-11-28T21:39:20.107Z,25.52
2022-11-28T21:41:51.073Z,24.52
2022-11-28T21:44:19.635Z,26.45
2022-11-28T21:46:47.802Z,26.25
2022-11-28T21:49:17.257Z,25.38
2022-11-28T21:51:45.571Z,25.75
2022-11-28T21:54:14.045Z,25.77
2022-11-28T21:56:42.718Z,26.25
2022-11-28T21:59:12.253Z,26.50
2022-11-28T22:01:40.600Z,24.95
2022-11-28T22:04:10.728Z,25.85
2022-11-28T22:06:38.957Z,25.35
2022-11-28T22:09:09.863Z,24.38
2022-11-28T22:11:39.390Z,24.33
2022-11-28T22:14:07.920Z,25.88
2022-11-28T22:16:37.409Z,25.38
2022-11-28T22:19:05.895Z,24.35
2022-11-28T22:24:22.625Z,26.38
2022-11-28T22:26:50.860Z,25.85
2022-11-28T22:29:19.148Z,27.02
2022-11-28T22:31:48.956Z,27.00
2022-11-28T22:34:17.205Z,28.98
2022-11-28T22:36:45.383Z,28.05
2022-11-28T22:39:13.678Z,29.55
2022-11-28T22:41:41.823Z,30.83
2022-11-28T22:44:11.915Z,28.55
2022-11-28T22:46:40.613Z,27.10
2022-11-28T22:49:11.373Z,25.40
2022-11-28T22:51:40.552Z,26.13
2022-11-28T22:54:12.265Z,25.58
2022-11-28T22:56:41.190Z,28.17
2022-11-28T22:59:13.079Z,29.50
2022-11-28T23:01:43.920Z,30.58
2022-11-28T23:04:13.944Z,27.52
2022-11-28T23:06:42.142Z,25.20
2022-11-28T23:09:11.784Z,26.63
2022-11-28T23:11:41.090Z,26.10
2022-11-28T23:14:09.839Z,26.58
2022-11-28T23:16:40.722Z,25.33
2022-11-28T23:19:11.959Z,25.90
2022-11-28T23:21:44.526Z,24.52
2022-11-28T23:24:15.339Z,25.15
2022-11-28T23:26:43.512Z,26.42
2022-11-28T23:29:12.159Z,26.38
2022-11-28T23:31:42.174Z,28.67
2022-11-28T23:34:11.097Z,29.05
2022-11-28T23:36:43.039Z,30.15
2022-11-28T23:39:13.294Z,29.40
2022-11-28T23:41:41.805Z,27.77
2022-11-28T23:44:12.439Z,29.58
2022-11-28T23:46:41.608Z,29.70
2022-11-28T23:49:11.001Z,33.88
2022-11-28T23:51:40.371Z,35.67
2022-11-28T23:54:10.909Z,31.40
2022-11-28T23:56:40.227Z,30.60
2022-11-28T23:59:10.479Z,29.77
